Westchester County Airport
KHPN : now visible

Airfield :











YOU CAN JOIN US ON...

 
LOGIN :

Register | Disclaimer

   EN    FR    IT 

 









Legend :    VFR   Marginal VFR   IFR   Intensive IFR   Very Intensive IFR
Visi :
Ceiling :
>= 8 km
>= 3000ft
5 to 8 km
1000 to 3000 ft
1500m to 5 km
500 to 1000 ft
800 to 1500m
200 to 500 ft
< 800m
< 200 ft
Symbols :   Thunderstorms  Fog  Heavy snow  Heavy precipitations  Wind > 20 kt






- Airport Elevation : 439 ft
- IATA code : HPN


KHPN - Westchester County

CURRENT METAR :
  • 080756Z 30003KT 10SM CLR M07/M11 A3050 RMK AO2 SLP337 T10671111 $

EXPIRED METARs :
  • 080656Z CLR M05/M11 A3049 RMK AO2 SLP335 T10501106 $
  • 080556Z 05003KT 10SM CLR M04/M11 A3048 RMK AO2 SLP330 T10441106 11006 21056 51006

TAF KHPN
Valid from the 08 at 06:00 until the 09 at 06:00 UTC


080530Z 0806/0906 VRB03KT P6SM FEW250
FM081400 18006KT P6SM SCT250
FM081700 20007G15KT P6SM SCT250
FM082300 22015KT 6SM BR BKN060
FM090400 20004KT 5SM BR BKN050 AMD NOT SKED



MET'MAP, your aeronautical weather chart ! - Copyright ORBIFLY December 2007 - Disclaimer

ORBIFLY MET'MAP TEAM :

Programming & Development : Alexandra Zaïnal
Concept & original design : Baudouin d'Aumeries
Assistance for programming : Marc-Olivier Méhu
Technical & hardware support : Manuel Goepfert

Contact : metmap@orbifly.com




SOURCES & CREDITS :

   NOAA       Earth
Advisory